sensor_id;sensor_type;location;lat;lon;timestamp;P1;durP1;ratioP1;P2;durP2;ratioP2
6973;SDS011;3527;52.376;8.990;2023-04-24T00:01:37;1.80;;;1.03;;
6973;SDS011;3527;52.376;8.990;2023-04-24T00:04:06;1.50;;;1.13;;
6973;SDS011;3527;52.376;8.990;2023-04-24T00:06:33;1.33;;;1.17;;
6973;SDS011;3527;52.376;8.990;2023-04-24T00:09:00;1.70;;;1.00;;
6973;SDS011;3527;52.376;8.990;2023-04-24T00:11:27;1.40;;;1.10;;
6973;SDS011;3527;52.376;8.990;2023-04-24T00:13:54;2.37;;;1.10;;
6973;SDS011;3527;52.376;8.990;2023-04-24T00:16:22;2.03;;;1.37;;
6973;SDS011;3527;52.376;8.990;2023-04-24T00:18:49;2.00;;;1.37;;
6973;SDS011;3527;52.376;8.990;2023-04-24T00:21:16;1.60;;;1.30;;
6973;SDS011;3527;52.376;8.990;2023-04-24T00:23:44;1.47;;;1.17;;
6973;SDS011;3527;52.376;8.990;2023-04-24T00:26:10;1.60;;;1.27;;
6973;SDS011;3527;52.376;8.990;2023-04-24T00:28:37;1.37;;;1.17;;
6973;SDS011;3527;52.376;8.990;2023-04-24T00:31:04;1.73;;;1.27;;
6973;SDS011;3527;52.376;8.990;2023-04-24T00:33:31;1.70;;;1.00;;
6973;SDS011;3527;52.376;8.990;2023-04-24T00:35:57;0.83;;;0.80;;
6973;SDS011;3527;52.376;8.990;2023-04-24T00:38:24;1.20;;;0.80;;
6973;SDS011;3527;52.376;8.990;2023-04-24T00:40:51;0.80;;;0.80;;
6973;SDS011;3527;52.376;8.990;2023-04-24T00:43:18;1.23;;;0.80;;
6973;SDS011;3527;52.376;8.990;2023-04-24T00:45:44;1.10;;;0.70;;
6973;SDS011;3527;52.376;8.990;2023-04-24T00:48:12;1.60;;;0.60;;
6973;SDS011;3527;52.376;8.990;2023-04-24T00:50:39;0.67;;;0.60;;
6973;SDS011;3527;52.376;8.990;2023-04-24T00:53:06;1.27;;;0.77;;
6973;SDS011;3527;52.376;8.990;2023-04-24T00:55:33;0.70;;;0.70;;
6973;SDS011;3527;52.376;8.990;2023-04-24T00:58:00;2.27;;;0.80;;
6973;SDS011;3527;52.376;8.990;2023-04-24T01:00:26;0.80;;;0.70;;
6973;SDS011;3527;52.376;8.990;2023-04-24T01:02:53;0.80;;;0.67;;
6973;SDS011;3527;52.376;8.990;2023-04-24T01:05:21;1.30;;;0.80;;
6973;SDS011;3527;52.376;8.990;2023-04-24T01:07:48;1.43;;;0.93;;
6973;SDS011;3527;52.376;8.990;2023-04-24T01:10:15;2.00;;;0.93;;
6973;SDS011;3527;52.376;8.990;2023-04-24T01:12:44;0.90;;;0.80;;
6973;SDS011;3527;52.376;8.990;2023-04-24T01:15:11;1.30;;;0.80;;
6973;SDS011;3527;52.376;8.990;2023-04-24T01:17:37;1.10;;;0.73;;
6973;SDS011;3527;52.376;8.990;2023-04-24T01:20:05;1.13;;;0.80;;
6973;SDS011;3527;52.376;8.990;2023-04-24T01:22:35;1.20;;;0.80;;
6973;SDS011;3527;52.376;8.990;2023-04-24T01:25:02;1.00;;;0.80;;
6973;SDS011;3527;52.376;8.990;2023-04-24T01:27:29;2.60;;;0.70;;
6973;SDS011;3527;52.376;8.990;2023-04-24T01:29:56;2.10;;;0.80;;
6973;SDS011;3527;52.376;8.990;2023-04-24T01:32:23;1.57;;;0.70;;
6973;SDS011;3527;52.376;8.990;2023-04-24T01:34:51;1.17;;;0.80;;
6973;SDS011;3527;52.376;8.990;2023-04-24T01:37:18;1.13;;;0.90;;
6973;SDS011;3527;52.376;8.990;2023-04-24T01:39:45;0.90;;;0.70;;
6973;SDS011;3527;52.376;8.990;2023-04-24T01:42:12;0.80;;;0.67;;
6973;SDS011;3527;52.376;8.990;2023-04-24T01:44:39;0.80;;;0.70;;
6973;SDS011;3527;52.376;8.990;2023-04-24T01:47:08;1.23;;;0.80;;
6973;SDS011;3527;52.376;8.990;2023-04-24T01:49:35;0.90;;;0.70;;
6973;SDS011;3527;52.376;8.990;2023-04-24T01:52:02;1.07;;;0.90;;
6973;SDS011;3527;52.376;8.990;2023-04-24T01:54:29;1.13;;;0.73;;
6973;SDS011;3527;52.376;8.990;2023-04-24T01:56:56;2.73;;;0.80;;
6973;SDS011;3527;52.376;8.990;2023-04-24T01:59:22;1.33;;;0.90;;
6973;SDS011;3527;52.376;8.990;2023-04-24T02:01:53;1.87;;;1.00;;
6973;SDS011;3527;52.376;8.990;2023-04-24T02:04:20;1.07;;;0.80;;
6973;SDS011;3527;52.376;8.990;2023-04-24T02:06:46;1.00;;;0.70;;
6973;SDS011;3527;52.376;8.990;2023-04-24T02:09:13;1.97;;;0.90;;
6973;SDS011;3527;52.376;8.990;2023-04-24T02:11:40;2.33;;;1.00;;
6973;SDS011;3527;52.376;8.990;2023-04-24T02:14:07;1.30;;;0.90;;
6973;SDS011;3527;52.376;8.990;2023-04-24T02:16:33;1.30;;;1.00;;
6973;SDS011;3527;52.376;8.990;2023-04-24T02:19:02;1.20;;;0.97;;
6973;SDS011;3527;52.376;8.990;2023-04-24T02:21:29;2.30;;;1.00;;
6973;SDS011;3527;52.376;8.990;2023-04-24T02:23:57;1.33;;;1.00;;
6973;SDS011;3527;52.376;8.990;2023-04-24T02:26:24;1.43;;;1.10;;
6973;SDS011;3527;52.376;8.990;2023-04-24T02:28:51;1.27;;;1.10;;
6973;SDS011;3527;52.376;8.990;2023-04-24T02:31:17;1.83;;;1.23;;
6973;SDS011;3527;52.376;8.990;2023-04-24T02:33:44;1.93;;;1.13;;
6973;SDS011;3527;52.376;8.990;2023-04-24T02:36:11;3.27;;;1.00;;
6973;SDS011;3527;52.376;8.990;2023-04-24T02:38:39;1.53;;;1.20;;
6973;SDS011;3527;52.376;8.990;2023-04-24T02:41:06;1.60;;;1.07;;
6973;SDS011;3527;52.376;8.990;2023-04-24T02:43:33;1.77;;;1.00;;
6973;SDS011;3527;52.376;8.990;2023-04-24T02:45:59;1.10;;;1.00;;
6973;SDS011;3527;52.376;8.990;2023-04-24T02:48:27;1.53;;;1.17;;
6973;SDS011;3527;52.376;8.990;2023-04-24T02:50:54;2.53;;;1.37;;
6973;SDS011;3527;52.376;8.990;2023-04-24T02:53:21;1.93;;;1.20;;
6973;SDS011;3527;52.376;8.990;2023-04-24T02:55:47;3.13;;;1.27;;
6973;SDS011;3527;52.376;8.990;2023-04-24T02:58:14;2.90;;;1.50;;
6973;SDS011;3527;52.376;8.990;2023-04-24T03:00:42;1.53;;;1.23;;
6973;SDS011;3527;52.376;8.990;2023-04-24T03:03:09;2.37;;;1.40;;
6973;SDS011;3527;52.376;8.990;2023-04-24T03:05:36;2.60;;;1.20;;
6973;SDS011;3527;52.376;8.990;2023-04-24T03:08:03;3.03;;;1.50;;
6973;SDS011;3527;52.376;8.990;2023-04-24T03:10:30;2.63;;;1.70;;
6973;SDS011;3527;52.376;8.990;2023-04-24T03:12:57;2.00;;;1.70;;
6973;SDS011;3527;52.376;8.990;2023-04-24T03:15:23;2.30;;;1.60;;
6973;SDS011;3527;52.376;8.990;2023-04-24T03:17:50;2.17;;;1.60;;
6973;SDS011;3527;52.376;8.990;2023-04-24T03:20:19;3.20;;;1.90;;
6973;SDS011;3527;52.376;8.990;2023-04-24T03:22:46;2.10;;;1.67;;
6973;SDS011;3527;52.376;8.990;2023-04-24T03:25:12;2.07;;;1.67;;
6973;SDS011;3527;52.376;8.990;2023-04-24T03:27:39;1.97;;;1.67;;
6973;SDS011;3527;52.376;8.990;2023-04-24T03:30:06;2.23;;;1.77;;
6973;SDS011;3527;52.376;8.990;2023-04-24T03:32:33;3.27;;;1.83;;
6973;SDS011;3527;52.376;8.990;2023-04-24T03:35:00;2.10;;;1.90;;
6973;SDS011;3527;52.376;8.990;2023-04-24T03:37:27;3.20;;;1.93;;
6973;SDS011;3527;52.376;8.990;2023-04-24T03:39:54;3.43;;;1.73;;
6973;SDS011;3527;52.376;8.990;2023-04-24T03:42:20;2.20;;;1.87;;
6973;SDS011;3527;52.376;8.990;2023-04-24T03:44:47;3.10;;;1.40;;
6973;SDS011;3527;52.376;8.990;2023-04-24T03:47:14;2.70;;;1.50;;
6973;SDS011;3527;52.376;8.990;2023-04-24T03:49:41;2.33;;;1.50;;
6973;SDS011;3527;52.376;8.990;2023-04-24T03:52:08;2.10;;;1.57;;
6973;SDS011;3527;52.376;8.990;2023-04-24T03:54:35;1.90;;;1.50;;
6973;SDS011;3527;52.376;8.990;2023-04-24T03:57:04;1.77;;;1.40;;
6973;SDS011;3527;52.376;8.990;2023-04-24T03:59:31;2.40;;;1.37;;
6973;SDS011;3527;52.376;8.990;2023-04-24T04:01:57;3.33;;;1.43;;
6973;SDS011;3527;52.376;8.990;2023-04-24T04:04:24;2.17;;;1.57;;
6973;SDS011;3527;52.376;8.990;2023-04-24T04:06:51;1.90;;;1.50;;
6973;SDS011;3527;52.376;8.990;2023-04-24T04:09:19;1.50;;;1.23;;
6973;SDS011;3527;52.376;8.990;2023-04-24T04:11:46;3.03;;;1.50;;
6973;SDS011;3527;52.376;8.990;2023-04-24T04:14:33;2.90;;;1.63;;
6973;SDS011;3527;52.376;8.990;2023-04-24T04:17:08;3.20;;;1.50;;
6973;SDS011;3527;52.376;8.990;2023-04-24T04:19:55;1.50;;;1.20;;
6973;SDS011;3527;52.376;8.990;2023-04-24T04:22:42;2.10;;;1.30;;
6973;SDS011;3527;52.376;8.990;2023-04-24T04:25:18;3.63;;;1.40;;
6973;SDS011;3527;52.376;8.990;2023-04-24T04:28:05;1.90;;;1.07;;
6973;SDS011;3527;52.376;8.990;2023-04-24T04:30:52;2.03;;;1.30;;
6973;SDS011;3527;52.376;8.990;2023-04-24T04:33:43;1.97;;;1.50;;
6973;SDS011;3527;52.376;8.990;2023-04-24T04:36:25;1.33;;;1.13;;
6973;SDS011;3527;52.376;8.990;2023-04-24T04:39:12;3.20;;;1.50;;
6973;SDS011;3527;52.376;8.990;2023-04-24T04:42:01;1.90;;;1.63;;
6973;SDS011;3527;52.376;8.990;2023-04-24T04:44:48;3.20;;;1.50;;
6973;SDS011;3527;52.376;8.990;2023-04-24T04:47:15;2.63;;;1.77;;
6973;SDS011;3527;52.376;8.990;2023-04-24T04:49:42;2.37;;;1.50;;
6973;SDS011;3527;52.376;8.990;2023-04-24T04:52:10;2.27;;;1.50;;
6973;SDS011;3527;52.376;8.990;2023-04-24T04:54:36;2.37;;;1.50;;
6973;SDS011;3527;52.376;8.990;2023-04-24T04:57:03;2.47;;;1.47;;
6973;SDS011;3527;52.376;8.990;2023-04-24T04:59:30;2.63;;;1.60;;
6973;SDS011;3527;52.376;8.990;2023-04-24T05:01:57;2.07;;;1.30;;
6973;SDS011;3527;52.376;8.990;2023-04-24T05:04:23;3.60;;;1.80;;
6973;SDS011;3527;52.376;8.990;2023-04-24T05:06:51;2.90;;;2.00;;
6973;SDS011;3527;52.376;8.990;2023-04-24T05:09:18;2.53;;;1.80;;
6973;SDS011;3527;52.376;8.990;2023-04-24T05:11:45;2.47;;;1.90;;
6973;SDS011;3527;52.376;8.990;2023-04-24T05:14:11;2.17;;;1.73;;
6973;SDS011;3527;52.376;8.990;2023-04-24T05:16:39;2.07;;;1.73;;
6973;SDS011;3527;52.376;8.990;2023-04-24T05:19:06;3.83;;;2.30;;
6973;SDS011;3527;52.376;8.990;2023-04-24T05:21:33;2.70;;;1.80;;
6973;SDS011;3527;52.376;8.990;2023-04-24T05:24:00;3.63;;;2.10;;
6973;SDS011;3527;52.376;8.990;2023-04-24T05:26:27;3.83;;;2.57;;
6973;SDS011;3527;52.376;8.990;2023-04-24T05:28:54;3.17;;;2.27;;
6973;SDS011;3527;52.376;8.990;2023-04-24T05:31:21;2.93;;;2.30;;
6973;SDS011;3527;52.376;8.990;2023-04-24T05:33:48;3.37;;;2.57;;
6973;SDS011;3527;52.376;8.990;2023-04-24T05:36:14;3.17;;;2.43;;
6973;SDS011;3527;52.376;8.990;2023-04-24T05:38:41;6.00;;;3.20;;
6973;SDS011;3527;52.376;8.990;2023-04-24T05:41:08;4.33;;;3.40;;
6973;SDS011;3527;52.376;8.990;2023-04-24T05:43:35;4.30;;;3.87;;
6973;SDS011;3527;52.376;8.990;2023-04-24T05:46:01;5.40;;;4.13;;
6973;SDS011;3527;52.376;8.990;2023-04-24T05:48:28;8.87;;;4.80;;
6973;SDS011;3527;52.376;8.990;2023-04-24T05:50:55;6.80;;;5.77;;
6973;SDS011;3527;52.376;8.990;2023-04-24T05:53:22;6.93;;;5.43;;
6973;SDS011;3527;52.376;8.990;2023-04-24T05:55:49;7.07;;;5.97;;
6973;SDS011;3527;52.376;8.990;2023-04-24T05:58:16;8.00;;;6.30;;
6973;SDS011;3527;52.376;8.990;2023-04-24T06:00:42;7.63;;;6.77;;
6973;SDS011;3527;52.376;8.990;2023-04-24T06:03:10;8.13;;;6.73;;
6973;SDS011;3527;52.376;8.990;2023-04-24T06:05:38;12.87;;;8.13;;
6973;SDS011;3527;52.376;8.990;2023-04-24T06:08:05;11.00;;;7.00;;
6973;SDS011;3527;52.376;8.990;2023-04-24T06:10:32;8.23;;;6.93;;
6973;SDS011;3527;52.376;8.990;2023-04-24T06:12:59;11.70;;;7.87;;
6973;SDS011;3527;52.376;8.990;2023-04-24T06:15:27;9.23;;;6.93;;
6973;SDS011;3527;52.376;8.990;2023-04-24T06:17:56;9.97;;;7.30;;
6973;SDS011;3527;52.376;8.990;2023-04-24T06:20:23;10.93;;;7.27;;
6973;SDS011;3527;52.376;8.990;2023-04-24T06:22:51;9.00;;;7.77;;
6973;SDS011;3527;52.376;8.990;2023-04-24T06:25:18;10.47;;;7.23;;
6973;SDS011;3527;52.376;8.990;2023-04-24T06:27:45;10.87;;;7.90;;
6973;SDS011;3527;52.376;8.990;2023-04-24T06:30:12;10.70;;;7.37;;
6973;SDS011;3527;52.376;8.990;2023-04-24T06:32:39;12.57;;;8.23;;
6973;SDS011;3527;52.376;8.990;2023-04-24T06:35:07;10.33;;;7.63;;
6973;SDS011;3527;52.376;8.990;2023-04-24T06:37:36;12.07;;;8.23;;
6973;SDS011;3527;52.376;8.990;2023-04-24T06:40:03;12.43;;;8.63;;
6973;SDS011;3527;52.376;8.990;2023-04-24T06:42:33;11.53;;;8.03;;
6973;SDS011;3527;52.376;8.990;2023-04-24T06:44:59;12.00;;;8.53;;
6973;SDS011;3527;52.376;8.990;2023-04-24T06:47:26;12.50;;;9.00;;
6973;SDS011;3527;52.376;8.990;2023-04-24T06:49:53;11.20;;;8.30;;
6973;SDS011;3527;52.376;8.990;2023-04-24T06:52:21;11.37;;;7.93;;
6973;SDS011;3527;52.376;8.990;2023-04-24T06:54:48;11.13;;;8.83;;
6973;SDS011;3527;52.376;8.990;2023-04-24T06:57:15;11.33;;;9.00;;
6973;SDS011;3527;52.376;8.990;2023-04-24T06:59:44;12.93;;;8.53;;
6973;SDS011;3527;52.376;8.990;2023-04-24T07:02:11;11.80;;;8.40;;
6973;SDS011;3527;52.376;8.990;2023-04-24T07:04:38;11.93;;;8.93;;
6973;SDS011;3527;52.376;8.990;2023-04-24T07:07:05;10.77;;;7.87;;
6973;SDS011;3527;52.376;8.990;2023-04-24T07:09:33;10.70;;;8.50;;
6973;SDS011;3527;52.376;8.990;2023-04-24T07:12:01;14.47;;;8.60;;
6973;SDS011;3527;52.376;8.990;2023-04-24T07:14:29;11.57;;;9.00;;
6973;SDS011;3527;52.376;8.990;2023-04-24T07:16:55;11.53;;;8.20;;
6973;SDS011;3527;52.376;8.990;2023-04-24T07:19:23;13.03;;;8.87;;
6973;SDS011;3527;52.376;8.990;2023-04-24T07:21:50;17.10;;;9.30;;
6973;SDS011;3527;52.376;8.990;2023-04-24T07:24:17;10.90;;;8.43;;
6973;SDS011;3527;52.376;8.990;2023-04-24T07:26:46;13.57;;;9.03;;
6973;SDS011;3527;52.376;8.990;2023-04-24T07:29:12;12.43;;;8.33;;
6973;SDS011;3527;52.376;8.990;2023-04-24T07:31:40;11.17;;;8.63;;
6973;SDS011;3527;52.376;8.990;2023-04-24T07:34:07;13.27;;;9.50;;
6973;SDS011;3527;52.376;8.990;2023-04-24T07:36:34;12.23;;;8.80;;
6973;SDS011;3527;52.376;8.990;2023-04-24T07:39:01;12.73;;;9.23;;
6973;SDS011;3527;52.376;8.990;2023-04-24T07:41:28;12.33;;;9.90;;
6973;SDS011;3527;52.376;8.990;2023-04-24T07:43:55;12.47;;;9.73;;
6973;SDS011;3527;52.376;8.990;2023-04-24T07:46:21;11.13;;;9.47;;
6973;SDS011;3527;52.376;8.990;2023-04-24T07:48:50;13.03;;;10.13;;
6973;SDS011;3527;52.376;8.990;2023-04-24T07:51:37;13.17;;;9.67;;
6973;SDS011;3527;52.376;8.990;2023-04-24T07:54:04;12.43;;;9.70;;
6973;SDS011;3527;52.376;8.990;2023-04-24T07:56:32;12.60;;;9.83;;
6973;SDS011;3527;52.376;8.990;2023-04-24T07:58:59;11.60;;;9.47;;
6973;SDS011;3527;52.376;8.990;2023-04-24T08:01:27;11.23;;;9.07;;
6973;SDS011;3527;52.376;8.990;2023-04-24T08:03:54;12.80;;;10.27;;
6973;SDS011;3527;52.376;8.990;2023-04-24T08:06:22;13.93;;;9.90;;
6973;SDS011;3527;52.376;8.990;2023-04-24T08:08:49;11.87;;;10.07;;
6973;SDS011;3527;52.376;8.990;2023-04-24T08:11:17;13.40;;;10.03;;
6973;SDS011;3527;52.376;8.990;2023-04-24T08:13:44;15.57;;;10.70;;
6973;SDS011;3527;52.376;8.990;2023-04-24T08:16:11;11.83;;;9.87;;
6973;SDS011;3527;52.376;8.990;2023-04-24T08:18:38;13.63;;;9.90;;
6973;SDS011;3527;52.376;8.990;2023-04-24T08:21:05;14.97;;;9.93;;
6973;SDS011;3527;52.376;8.990;2023-04-24T08:23:31;10.80;;;9.27;;
6973;SDS011;3527;52.376;8.990;2023-04-24T08:25:58;13.03;;;9.30;;
6973;SDS011;3527;52.376;8.990;2023-04-24T08:28:25;11.77;;;8.93;;
6973;SDS011;3527;52.376;8.990;2023-04-24T08:30:52;9.80;;;8.33;;
6973;SDS011;3527;52.376;8.990;2023-04-24T08:33:22;11.97;;;8.70;;
6973;SDS011;3527;52.376;8.990;2023-04-24T08:35:49;10.83;;;8.30;;
6973;SDS011;3527;52.376;8.990;2023-04-24T08:38:16;13.20;;;8.67;;
6973;SDS011;3527;52.376;8.990;2023-04-24T08:40:43;8.70;;;7.80;;
6973;SDS011;3527;52.376;8.990;2023-04-24T08:43:12;9.93;;;8.23;;
6973;SDS011;3527;52.376;8.990;2023-04-24T08:45:40;11.23;;;7.50;;
6973;SDS011;3527;52.376;8.990;2023-04-24T08:48:07;9.40;;;7.20;;
6973;SDS011;3527;52.376;8.990;2023-04-24T08:50:53;10.33;;;7.93;;
6973;SDS011;3527;52.376;8.990;2023-04-24T08:53:20;10.50;;;6.93;;
6973;SDS011;3527;52.376;8.990;2023-04-24T08:55:47;8.60;;;6.90;;
6973;SDS011;3527;52.376;8.990;2023-04-24T08:58:16;8.50;;;6.90;;
6973;SDS011;3527;52.376;8.990;2023-04-24T09:00:44;10.33;;;6.27;;
6973;SDS011;3527;52.376;8.990;2023-04-24T09:03:13;6.60;;;5.90;;
6973;SDS011;3527;52.376;8.990;2023-04-24T09:05:43;8.77;;;5.90;;
6973;SDS011;3527;52.376;8.990;2023-04-24T09:08:15;7.00;;;5.30;;
6973;SDS011;3527;52.376;8.990;2023-04-24T09:10:44;6.13;;;4.70;;
6973;SDS011;3527;52.376;8.990;2023-04-24T09:13:10;6.97;;;5.50;;
6973;SDS011;3527;52.376;8.990;2023-04-24T09:15:38;6.23;;;5.33;;
6973;SDS011;3527;52.376;8.990;2023-04-24T09:18:05;5.93;;;5.30;;
6973;SDS011;3527;52.376;8.990;2023-04-24T09:20:32;7.07;;;5.37;;
6973;SDS011;3527;52.376;8.990;2023-04-24T09:23:01;6.83;;;5.23;;
6973;SDS011;3527;52.376;8.990;2023-04-24T09:25:31;6.40;;;4.33;;
6973;SDS011;3527;52.376;8.990;2023-04-24T09:28:00;4.93;;;4.43;;
6973;SDS011;3527;52.376;8.990;2023-04-24T09:30:29;5.53;;;4.70;;
6973;SDS011;3527;52.376;8.990;2023-04-24T09:33:15;4.87;;;4.37;;
6973;SDS011;3527;52.376;8.990;2023-04-24T09:35:42;5.87;;;4.50;;
6973;SDS011;3527;52.376;8.990;2023-04-24T09:38:16;4.97;;;4.47;;
6973;SDS011;3527;52.376;8.990;2023-04-24T09:40:43;7.57;;;4.80;;
6973;SDS011;3527;52.376;8.990;2023-04-24T09:43:10;5.37;;;3.80;;
6973;SDS011;3527;52.376;8.990;2023-04-24T09:45:39;5.83;;;3.53;;
6973;SDS011;3527;52.376;8.990;2023-04-24T09:48:09;3.63;;;3.00;;
6973;SDS011;3527;52.376;8.990;2023-04-24T09:50:37;4.60;;;3.33;;
6973;SDS011;3527;52.376;8.990;2023-04-24T09:53:04;3.43;;;3.00;;
6973;SDS011;3527;52.376;8.990;2023-04-24T09:55:38;3.67;;;3.30;;
6973;SDS011;3527;52.376;8.990;2023-04-24T09:58:07;4.93;;;2.80;;
6973;SDS011;3527;52.376;8.990;2023-04-24T10:00:34;3.60;;;3.00;;
6973;SDS011;3527;52.376;8.990;2023-04-24T10:03:02;2.93;;;2.47;;
6973;SDS011;3527;52.376;8.990;2023-04-24T10:05:31;3.37;;;3.07;;
6973;SDS011;3527;52.376;8.990;2023-04-24T10:08:06;3.47;;;3.17;;
6973;SDS011;3527;52.376;8.990;2023-04-24T10:10:38;3.60;;;2.90;;
6973;SDS011;3527;52.376;8.990;2023-04-24T10:13:07;3.60;;;3.30;;
6973;SDS011;3527;52.376;8.990;2023-04-24T10:15:37;3.40;;;2.73;;
6973;SDS011;3527;52.376;8.990;2023-04-24T10:18:05;2.90;;;2.50;;
6973;SDS011;3527;52.376;8.990;2023-04-24T10:20:36;2.47;;;2.27;;
6973;SDS011;3527;52.376;8.990;2023-04-24T10:23:04;3.30;;;2.17;;
6973;SDS011;3527;52.376;8.990;2023-04-24T10:25:32;2.50;;;2.03;;
6973;SDS011;3527;52.376;8.990;2023-04-24T10:28:01;2.40;;;2.20;;
6973;SDS011;3527;52.376;8.990;2023-04-24T10:30:33;2.80;;;2.23;;
6973;SDS011;3527;52.376;8.990;2023-04-24T10:33:04;2.60;;;2.33;;
6973;SDS011;3527;52.376;8.990;2023-04-24T10:35:34;4.20;;;2.53;;
6973;SDS011;3527;52.376;8.990;2023-04-24T10:38:14;2.40;;;2.20;;
6973;SDS011;3527;52.376;8.990;2023-04-24T10:40:45;2.50;;;2.30;;
6973;SDS011;3527;52.376;8.990;2023-04-24T10:43:14;2.50;;;2.10;;
6973;SDS011;3527;52.376;8.990;2023-04-24T10:45:59;2.70;;;2.10;;
6973;SDS011;3527;52.376;8.990;2023-04-24T10:48:30;2.50;;;2.03;;
6973;SDS011;3527;52.376;8.990;2023-04-24T10:50:57;2.63;;;1.60;;
6973;SDS011;3527;52.376;8.990;2023-04-24T10:53:27;2.80;;;2.00;;
6973;SDS011;3527;52.376;8.990;2023-04-24T10:56:02;2.57;;;1.60;;
6973;SDS011;3527;52.376;8.990;2023-04-24T11:01:05;3.20;;;1.77;;
6973;SDS011;3527;52.376;8.990;2023-04-24T11:03:33;1.87;;;1.70;;
6973;SDS011;3527;52.376;8.990;2023-04-24T11:08:39;2.37;;;1.70;;
6973;SDS011;3527;52.376;8.990;2023-04-24T11:11:10;2.67;;;1.87;;
6973;SDS011;3527;52.376;8.990;2023-04-24T11:16:25;2.60;;;1.90;;
6973;SDS011;3527;52.376;8.990;2023-04-24T11:21:38;2.00;;;1.50;;
6973;SDS011;3527;52.376;8.990;2023-04-24T11:26:53;4.93;;;2.03;;
6973;SDS011;3527;52.376;8.990;2023-04-24T11:29:21;3.17;;;2.87;;
6973;SDS011;3527;52.376;8.990;2023-04-24T11:31:50;3.53;;;3.23;;
6973;SDS011;3527;52.376;8.990;2023-04-24T11:34:18;3.13;;;2.83;;
6973;SDS011;3527;52.376;8.990;2023-04-24T11:36:48;3.10;;;2.90;;
6973;SDS011;3527;52.376;8.990;2023-04-24T11:39:15;4.20;;;3.40;;
6973;SDS011;3527;52.376;8.990;2023-04-24T11:41:41;3.53;;;3.23;;
6973;SDS011;3527;52.376;8.990;2023-04-24T11:44:09;4.03;;;3.43;;
6973;SDS011;3527;52.376;8.990;2023-04-24T11:46:36;3.57;;;3.27;;
6973;SDS011;3527;52.376;8.990;2023-04-24T11:49:04;3.93;;;3.50;;
6973;SDS011;3527;52.376;8.990;2023-04-24T11:51:31;4.37;;;3.97;;
6973;SDS011;3527;52.376;8.990;2023-04-24T11:54:13;4.50;;;4.10;;
6973;SDS011;3527;52.376;8.990;2023-04-24T11:56:44;4.10;;;3.70;;
6973;SDS011;3527;52.376;8.990;2023-04-24T11:59:12;5.17;;;3.90;;
6973;SDS011;3527;52.376;8.990;2023-04-24T12:01:43;3.90;;;3.60;;
6973;SDS011;3527;52.376;8.990;2023-04-24T12:04:11;3.93;;;3.63;;
6973;SDS011;3527;52.376;8.990;2023-04-24T12:06:39;3.40;;;3.10;;
6973;SDS011;3527;52.376;8.990;2023-04-24T12:09:06;3.60;;;3.30;;
6973;SDS011;3527;52.376;8.990;2023-04-24T12:11:52;4.17;;;3.80;;
6973;SDS011;3527;52.376;8.990;2023-04-24T12:14:20;4.23;;;3.83;;
6973;SDS011;3527;52.376;8.990;2023-04-24T12:16:47;4.50;;;4.10;;
6973;SDS011;3527;52.376;8.990;2023-04-24T12:19:21;3.53;;;3.23;;
6973;SDS011;3527;52.376;8.990;2023-04-24T12:21:59;3.73;;;3.43;;
6973;SDS011;3527;52.376;8.990;2023-04-24T12:24:31;3.50;;;3.20;;
6973;SDS011;3527;52.376;8.990;2023-04-24T12:26:58;3.50;;;3.07;;
6973;SDS011;3527;52.376;8.990;2023-04-24T12:29:25;4.00;;;3.70;;
6973;SDS011;3527;52.376;8.990;2023-04-24T12:31:52;4.43;;;3.60;;
6973;SDS011;3527;52.376;8.990;2023-04-24T12:34:19;3.57;;;3.27;;
6973;SDS011;3527;52.376;8.990;2023-04-24T12:36:47;3.63;;;3.30;;
6973;SDS011;3527;52.376;8.990;2023-04-24T12:39:18;3.67;;;3.10;;
6973;SDS011;3527;52.376;8.990;2023-04-24T12:41:55;3.63;;;2.60;;
6973;SDS011;3527;52.376;8.990;2023-04-24T12:44:30;2.67;;;1.73;;
6973;SDS011;3527;52.376;8.990;2023-04-24T12:46:58;1.80;;;1.30;;
6973;SDS011;3527;52.376;8.990;2023-04-24T12:49:25;2.70;;;1.53;;
6973;SDS011;3527;52.376;8.990;2023-04-24T12:51:52;2.07;;;1.77;;
6973;SDS011;3527;52.376;8.990;2023-04-24T12:54:19;2.60;;;1.70;;
6973;SDS011;3527;52.376;8.990;2023-04-24T12:56:46;2.17;;;1.73;;
6973;SDS011;3527;52.376;8.990;2023-04-24T12:59:13;2.37;;;1.60;;
6973;SDS011;3527;52.376;8.990;2023-04-24T13:01:40;2.40;;;1.70;;
6973;SDS011;3527;52.376;8.990;2023-04-24T13:04:08;3.40;;;2.13;;
6973;SDS011;3527;52.376;8.990;2023-04-24T13:06:35;4.00;;;1.97;;
6973;SDS011;3527;52.376;8.990;2023-04-24T13:09:01;5.23;;;2.40;;
6973;SDS011;3527;52.376;8.990;2023-04-24T13:11:28;3.43;;;2.20;;
6973;SDS011;3527;52.376;8.990;2023-04-24T13:13:55;3.53;;;2.20;;
6973;SDS011;3527;52.376;8.990;2023-04-24T13:16:21;3.90;;;2.40;;
6973;SDS011;3527;52.376;8.990;2023-04-24T13:18:49;4.97;;;2.50;;
6973;SDS011;3527;52.376;8.990;2023-04-24T13:21:16;5.13;;;2.77;;
6973;SDS011;3527;52.376;8.990;2023-04-24T13:23:43;6.40;;;2.87;;
6973;SDS011;3527;52.376;8.990;2023-04-24T13:26:10;4.80;;;3.10;;
6973;SDS011;3527;52.376;8.990;2023-04-24T13:28:37;4.20;;;3.37;;
6973;SDS011;3527;52.376;8.990;2023-04-24T13:31:04;5.10;;;3.50;;
6973;SDS011;3527;52.376;8.990;2023-04-24T13:33:32;4.63;;;3.30;;
6973;SDS011;3527;52.376;8.990;2023-04-24T13:35:59;6.43;;;3.53;;
6973;SDS011;3527;52.376;8.990;2023-04-24T13:38:26;4.60;;;3.47;;
6973;SDS011;3527;52.376;8.990;2023-04-24T13:40:53;4.87;;;3.80;;
6973;SDS011;3527;52.376;8.990;2023-04-24T13:43:19;5.77;;;4.20;;
6973;SDS011;3527;52.376;8.990;2023-04-24T13:45:46;8.97;;;4.60;;
6973;SDS011;3527;52.376;8.990;2023-04-24T13:48:13;5.67;;;4.53;;
6973;SDS011;3527;52.376;8.990;2023-04-24T13:50:42;6.10;;;5.07;;
6973;SDS011;3527;52.376;8.990;2023-04-24T13:53:09;6.90;;;4.23;;
6973;SDS011;3527;52.376;8.990;2023-04-24T13:55:36;6.53;;;4.47;;
6973;SDS011;3527;52.376;8.990;2023-04-24T13:58:03;7.77;;;5.00;;
6973;SDS011;3527;52.376;8.990;2023-04-24T14:00:30;8.90;;;4.30;;
6973;SDS011;3527;52.376;8.990;2023-04-24T14:02:57;7.43;;;4.30;;
6973;SDS011;3527;52.376;8.990;2023-04-24T14:05:24;5.83;;;3.90;;
6973;SDS011;3527;52.376;8.990;2023-04-24T14:07:51;7.30;;;4.57;;
6973;SDS011;3527;52.376;8.990;2023-04-24T14:10:18;8.13;;;5.20;;
6973;SDS011;3527;52.376;8.990;2023-04-24T14:12:45;6.73;;;4.03;;
6973;SDS011;3527;52.376;8.990;2023-04-24T14:15:12;6.67;;;4.60;;
6973;SDS011;3527;52.376;8.990;2023-04-24T14:17:39;8.33;;;4.40;;
6973;SDS011;3527;52.376;8.990;2023-04-24T14:20:06;9.73;;;4.60;;
6973;SDS011;3527;52.376;8.990;2023-04-24T14:22:33;6.60;;;4.17;;
6973;SDS011;3527;52.376;8.990;2023-04-24T14:25:00;7.87;;;4.50;;
6973;SDS011;3527;52.376;8.990;2023-04-24T14:27:27;7.80;;;4.70;;
6973;SDS011;3527;52.376;8.990;2023-04-24T14:29:54;9.07;;;4.80;;
6973;SDS011;3527;52.376;8.990;2023-04-24T14:32:21;9.10;;;4.37;;
6973;SDS011;3527;52.376;8.990;2023-04-24T14:34:47;7.93;;;4.90;;
6973;SDS011;3527;52.376;8.990;2023-04-24T14:37:14;8.87;;;4.70;;
6973;SDS011;3527;52.376;8.990;2023-04-24T14:39:41;9.43;;;4.83;;
6973;SDS011;3527;52.376;8.990;2023-04-24T14:42:13;12.30;;;5.70;;
6973;SDS011;3527;52.376;8.990;2023-04-24T14:44:40;7.77;;;5.43;;
6973;SDS011;3527;52.376;8.990;2023-04-24T14:47:06;7.60;;;5.10;;
6973;SDS011;3527;52.376;8.990;2023-04-24T14:49:33;9.07;;;5.10;;
6973;SDS011;3527;52.376;8.990;2023-04-24T14:52:00;9.03;;;4.90;;
6973;SDS011;3527;52.376;8.990;2023-04-24T14:54:29;9.47;;;5.23;;
6973;SDS011;3527;52.376;8.990;2023-04-24T14:56:56;10.63;;;5.53;;
6973;SDS011;3527;52.376;8.990;2023-04-24T14:59:23;10.03;;;5.10;;
6973;SDS011;3527;52.376;8.990;2023-04-24T15:01:50;7.70;;;4.97;;
6973;SDS011;3527;52.376;8.990;2023-04-24T15:04:39;9.43;;;5.53;;
6973;SDS011;3527;52.376;8.990;2023-04-24T15:07:05;11.37;;;5.80;;
6973;SDS011;3527;52.376;8.990;2023-04-24T15:09:32;10.17;;;5.33;;
6973;SDS011;3527;52.376;8.990;2023-04-24T15:11:59;9.00;;;5.50;;
6973;SDS011;3527;52.376;8.990;2023-04-24T15:14:28;11.77;;;5.97;;
6973;SDS011;3527;52.376;8.990;2023-04-24T15:16:55;11.73;;;5.97;;
6973;SDS011;3527;52.376;8.990;2023-04-24T15:19:22;10.53;;;6.00;;
6973;SDS011;3527;52.376;8.990;2023-04-24T15:21:48;9.93;;;4.97;;
6973;SDS011;3527;52.376;8.990;2023-04-24T15:24:15;10.27;;;5.73;;
6973;SDS011;3527;52.376;8.990;2023-04-24T15:26:42;8.30;;;4.73;;
6973;SDS011;3527;52.376;8.990;2023-04-24T15:29:09;9.50;;;5.17;;
6973;SDS011;3527;52.376;8.990;2023-04-24T15:31:35;8.77;;;5.30;;
6973;SDS011;3527;52.376;8.990;2023-04-24T15:34:06;9.87;;;5.30;;